Time;durP1;ratioP1;P1;durP2;ratioP2;P2;SDS_P1;SDS_P2;PMS_P1;PMS_P2;Temp;Humidity;BMP_temperature;BMP_pressure;BME280_temperature;BME280_humidity;BME280_pressure;Samples;Min_cycle;Max_cycle;Signal;HPM_P1;HPM_P2
2023/08/29 00:01:49;;;;;;;2.30;1.52;;;;;;;;;;5073142;28;20651;-59
2023/08/29 00:04:16;;;;;;;2.80;1.40;;;;;;;;;;5072508;28;20053;-58
2023/08/29 00:06:44;;;;;;;2.70;1.80;;;;;;;;;;5071344;28;20052;-59
2023/08/29 00:09:11;;;;;;;5.55;1.70;;;;;;;;;;5071475;28;20588;-58
2023/08/29 00:11:38;;;;;;;2.30;1.70;;;;;;;;;;5072816;28;20366;-60
2023/08/29 00:14:05;;;;;;;15.38;1.75;;;;;;;;;;5072360;28;20048;-59
2023/08/29 00:16:32;;;;;;;4.72;1.77;;;;;;;;;;5072615;28;20090;-59
2023/08/29 00:18:59;;;;;;;3.47;1.80;;;;;;;;;;5072194;28;20049;-59
2023/08/29 00:21:25;;;;;;;2.33;1.60;;;;;;;;;;5072727;28;20401;-59
2023/08/29 00:23:53;;;;;;;2.58;1.88;;;;;;;;;;5071265;28;20409;-59
2023/08/29 00:26:20;;;;;;;2.80;1.70;;;;;;;;;;5072482;28;20056;-59
2023/08/29 00:28:49;;;;;;;2.40;1.45;;;;;;;;;;5072534;28;20044;-60
2023/08/29 00:31:16;;;;;;;2.17;1.50;;;;;;;;;;5072032;28;20469;-60
2023/08/29 00:33:43;;;;;;;2.63;1.60;;;;;;;;;;5072014;28;20053;-59
2023/08/29 00:36:10;;;;;;;1.67;1.40;;;;;;;;;;5072552;28;20055;-59
2023/08/29 00:38:36;;;;;;;7.85;2.42;;;;;;;;;;5070897;28;20418;-58
2023/08/29 00:41:04;;;;;;;2.55;1.55;;;;;;;;;;5072204;28;20057;-59
2023/08/29 00:43:31;;;;;;;2.63;2.03;;;;;;;;;;5072212;28;20063;-59
2023/08/29 00:45:59;;;;;;;2.35;1.70;;;;;;;;;;5072441;28;20469;-59
2023/08/29 00:48:26;;;;;;;2.45;1.63;;;;;;;;;;5072097;28;20056;-59
2023/08/29 00:50:53;;;;;;;2.97;1.70;;;;;;;;;;5072099;28;20059;-60
2023/08/29 00:53:20;;;;;;;2.70;1.85;;;;;;;;;;5070877;28;20401;-58
2023/08/29 00:55:46;;;;;;;2.00;1.65;;;;;;;;;;5071887;28;20056;-58
2023/08/29 00:58:15;;;;;;;2.35;1.60;;;;;;;;;;5072254;28;20059;-59
2023/08/29 01:00:42;;;;;;;2.97;1.60;;;;;;;;;;5072104;28;20049;-59
2023/08/29 01:03:09;;;;;;;3.30;2.22;;;;;;;;;;5071857;28;20060;-58
2023/08/29 01:05:36;;;;;;;3.97;1.67;;;;;;;;;;5071838;28;20397;-59
2023/08/29 01:08:03;;;;;;;2.13;1.70;;;;;;;;;;5070482;28;20052;-59
2023/08/29 01:10:33;;;;;;;3.92;1.85;;;;;;;;;;5071580;28;20163;-59
2023/08/29 01:13:04;;;;;;;2.90;1.65;;;;;;;;;;5071100;28;20516;-58
2023/08/29 01:15:33;;;;;;;3.83;1.70;;;;;;;;;;5071671;28;20063;-60
2023/08/29 01:18:02;;;;;;;4.90;1.83;;;;;;;;;;5071935;28;20056;-59
2023/08/29 01:20:30;;;;;;;2.67;1.33;;;;;;;;;;5070137;28;20489;-59
2023/08/29 01:23:00;;;;;;;2.42;1.55;;;;;;;;;;5071064;28;20057;-60
2023/08/29 01:25:31;;;;;;;2.25;1.33;;;;;;;;;;5071953;28;20391;-59
2023/08/29 01:28:00;;;;;;;2.25;1.58;;;;;;;;;;5071724;28;20059;-60
2023/08/29 01:30:27;;;;;;;3.20;1.95;;;;;;;;;;5071764;28;20045;-59
2023/08/29 01:32:55;;;;;;;2.42;1.88;;;;;;;;;;5070828;28;20056;-59
2023/08/29 01:35:22;;;;;;;2.33;1.70;;;;;;;;;;5070240;28;20406;-59
2023/08/29 01:37:49;;;;;;;2.63;1.92;;;;;;;;;;5064549;28;20343;-59
2023/08/29 01:40:16;;;;;;;3.10;1.98;;;;;;;;;;5071641;28;20375;-59
2023/08/29 01:42:43;;;;;;;2.38;1.65;;;;;;;;;;5073750;28;20060;-59
2023/08/29 01:45:11;;;;;;;2.88;1.85;;;;;;;;;;5075192;28;20072;-57
2023/08/29 01:47:38;;;;;;;2.33;1.50;;;;;;;;;;5075257;28;20063;-59
2023/08/29 01:50:05;;;;;;;3.65;2.38;;;;;;;;;;5074042;28;20045;-58
2023/08/29 01:52:32;;;;;;;3.30;2.22;;;;;;;;;;5071549;28;20434;-59
2023/08/29 01:54:59;;;;;;;2.80;1.85;;;;;;;;;;5075285;28;20075;-58
2023/08/29 01:57:27;;;;;;;3.55;1.70;;;;;;;;;;5075433;28;20401;-59
2023/08/29 01:59:54;;;;;;;2.72;1.83;;;;;;;;;;5074871;28;20052;-59
2023/08/29 02:02:23;;;;;;;3.13;2.00;;;;;;;;;;5075401;28;20402;-58
2023/08/29 02:04:49;;;;;;;3.03;1.45;;;;;;;;;;5075067;28;20501;-59
2023/08/29 02:07:16;;;;;;;2.88;1.65;;;;;;;;;;5072558;28;20390;-59
2023/08/29 02:09:43;;;;;;;2.60;1.80;;;;;;;;;;5074706;28;20075;-59
2023/08/29 02:12:10;;;;;;;2.65;2.05;;;;;;;;;;5074770;28;20056;-59
2023/08/29 02:14:36;;;;;;;3.25;2.25;;;;;;;;;;5074900;28;20056;-59
2023/08/29 02:17:03;;;;;;;2.40;1.95;;;;;;;;;;5074904;28;20060;-59
2023/08/29 02:19:31;;;;;;;3.35;1.85;;;;;;;;;;5074364;28;20440;-60
2023/08/29 02:21:58;;;;;;;4.28;1.95;;;;;;;;;;5073116;28;20056;-60
2023/08/29 02:24:25;;;;;;;2.92;1.63;;;;;;;;;;5074815;28;20056;-58
2023/08/29 02:26:52;;;;;;;4.10;2.25;;;;;;;;;;5074913;28;20049;-59
2023/08/29 02:29:19;;;;;;;2.55;1.70;;;;;;;;;;5074728;28;20052;-58
2023/08/29 02:31:45;;;;;;;2.80;1.75;;;;;;;;;;5074696;28;20064;-59
2023/08/29 02:34:12;;;;;;;2.83;1.80;;;;;;;;;;5074146;28;20056;-58
2023/08/29 02:36:41;;;;;;;3.28;1.92;;;;;;;;;;5072426;28;20156;-59
2023/08/29 02:39:08;;;;;;;3.37;2.30;;;;;;;;;;5071912;28;20053;-59
2023/08/29 02:41:35;;;;;;;2.92;1.90;;;;;;;;;;5073956;28;20365;-59
2023/08/29 02:44:03;;;;;;;3.08;1.83;;;;;;;;;;5072545;28;20051;-58
2023/08/29 02:46:30;;;;;;;2.80;1.73;;;;;;;;;;5073503;28;20063;-58
2023/08/29 02:48:56;;;;;;;2.33;1.60;;;;;;;;;;5074206;28;20060;-58
2023/08/29 02:51:23;;;;;;;3.45;1.40;;;;;;;;;;5072331;28;20040;-59
2023/08/29 02:53:51;;;;;;;2.75;1.95;;;;;;;;;;5074123;28;20052;-59
2023/08/29 02:56:19;;;;;;;3.90;1.48;;;;;;;;;;5074169;28;20063;-59
2023/08/29 02:58:46;;;;;;;3.50;1.73;;;;;;;;;;5074039;28;20059;-58
2023/08/29 03:01:13;;;;;;;2.70;1.50;;;;;;;;;;5073752;28;20045;-59
2023/08/29 03:03:40;;;;;;;2.80;1.30;;;;;;;;;;5073398;28;20481;-59
2023/08/29 03:06:07;;;;;;;2.60;1.67;;;;;;;;;;5071847;28;20052;-59
2023/08/29 03:08:34;;;;;;;3.70;1.83;;;;;;;;;;5073836;28;20061;-59
2023/08/29 03:11:04;;;;;;;5.53;2.53;;;;;;;;;;5073920;28;20053;-59
2023/08/29 03:13:31;;;;;;;3.75;1.67;;;;;;;;;;5073595;28;20524;-60
2023/08/29 03:15:59;;;;;;;3.47;2.00;;;;;;;;;;5073528;28;20060;-58
2023/08/29 03:18:26;;;;;;;3.08;1.50;;;;;;;;;;5073735;28;20486;-59
2023/08/29 03:20:53;;;;;;;3.58;1.92;;;;;;;;;;5071590;28;20048;-59
2023/08/29 03:23:19;;;;;;;2.97;1.80;;;;;;;;;;5073595;28;20505;-59
2023/08/29 03:25:47;;;;;;;3.05;2.00;;;;;;;;;;5073561;28;20465;-59
2023/08/29 03:28:15;;;;;;;2.85;1.85;;;;;;;;;;5073028;28;20056;-59
2023/08/29 03:30:42;;;;;;;3.22;1.92;;;;;;;;;;5072949;28;20055;-59
2023/08/29 03:33:09;;;;;;;3.78;2.47;;;;;;;;;;5072810;28;20060;-58
2023/08/29 03:35:36;;;;;;;2.17;1.40;;;;;;;;;;5071550;28;20052;-58
2023/08/29 03:38:03;;;;;;;3.58;2.00;;;;;;;;;;5072087;28;20048;-58
2023/08/29 03:40:30;;;;;;;3.15;2.15;;;;;;;;;;5072552;28;20060;-59
2023/08/29 03:43:00;;;;;;;3.72;2.42;;;;;;;;;;5073204;28;20063;-59
2023/08/29 03:45:28;;;;;;;3.38;2.00;;;;;;;;;;5073008;28;20049;-59
2023/08/29 03:47:55;;;;;;;4.00;2.53;;;;;;;;;;5072956;28;20060;-58
2023/08/29 03:50:22;;;;;;;5.80;2.05;;;;;;;;;;5072888;28;20049;-58
2023/08/29 03:52:49;;;;;;;4.30;2.85;;;;;;;;;;5071100;28;20056;-59
2023/08/29 03:55:15;;;;;;;3.33;2.47;;;;;;;;;;5072484;28;20067;-58
2023/08/29 03:57:42;;;;;;;3.17;2.08;;;;;;;;;;5072803;28;20067;-59
2023/08/29 04:00:10;;;;;;;3.70;2.10;;;;;;;;;;5072779;28;20059;-60
2023/08/29 04:02:40;;;;;;;5.15;2.38;;;;;;;;;;5072808;28;20058;-60
2023/08/29 04:05:14;;;;;;;2.95;2.17;;;;;;;;;;5072128;28;20421;-60
2023/08/29 04:07:41;;;;;;;2.85;1.80;;;;;;;;;;5070481;28;20052;-59
2023/08/29 04:10:08;;;;;;;3.20;2.28;;;;;;;;;;5069267;28;20500;-59
2023/08/29 04:12:35;;;;;;;3.63;2.20;;;;;;;;;;5072395;28;20079;-60
2023/08/29 04:15:02;;;;;;;3.00;1.90;;;;;;;;;;5072647;28;20075;-59
2023/08/29 04:17:28;;;;;;;3.95;2.53;;;;;;;;;;5072929;28;20421;-59
2023/08/29 04:19:56;;;;;;;4.07;2.58;;;;;;;;;;5072590;28;20485;-59
2023/08/29 04:22:22;;;;;;;4.53;2.35;;;;;;;;;;5071304;28;20044;-60
2023/08/29 04:24:52;;;;;;;3.92;2.72;;;;;;;;;;5072564;28;20059;-60
2023/08/29 04:27:18;;;;;;;3.53;2.50;;;;;;;;;;5072413;28;20059;-61
2023/08/29 04:29:45;;;;;;;4.97;2.85;;;;;;;;;;5071857;28;20056;-59
2023/08/29 04:32:12;;;;;;;3.13;2.20;;;;;;;;;;5072581;28;20401;-60
2023/08/29 04:34:39;;;;;;;4.70;2.88;;;;;;;;;;5070394;28;20409;-60
2023/08/29 04:37:07;;;;;;;4.80;3.15;;;;;;;;;;5070866;28;20071;-60
2023/08/29 04:39:34;;;;;;;4.55;2.67;;;;;;;;;;5072088;28;20057;-59
2023/08/29 04:42:01;;;;;;;3.63;2.40;;;;;;;;;;5066800;28;20055;-60
2023/08/29 04:44:30;;;;;;;2.65;2.15;;;;;;;;;;5072326;28;20108;-60
2023/08/29 04:46:56;;;;;;;5.73;3.90;;;;;;;;;;5066014;28;20064;-60
2023/08/29 04:49:23;;;;;;;4.40;2.47;;;;;;;;;;5070881;28;20040;-60
2023/08/29 04:51:50;;;;;;;5.50;2.63;;;;;;;;;;5072191;28;20067;-59
2023/08/29 04:54:18;;;;;;;8.02;2.40;;;;;;;;;;5071416;28;20432;-60
2023/08/29 04:56:45;;;;;;;4.18;2.35;;;;;;;;;;5065936;28;20068;-60
2023/08/29 04:59:12;;;;;;;4.88;2.75;;;;;;;;;;5060589;28;20044;-60
2023/08/29 05:01:39;;;;;;;4.00;2.63;;;;;;;;;;5063137;28;20072;-59
2023/08/29 05:04:07;;;;;;;4.93;2.65;;;;;;;;;;5061085;28;20052;-60
2023/08/29 05:06:34;;;;;;;4.07;2.08;;;;;;;;;;5065046;28;20055;-60
2023/08/29 05:09:01;;;;;;;4.22;2.72;;;;;;;;;;5070987;28;20056;-60
2023/08/29 05:11:29;;;;;;;6.55;2.80;;;;;;;;;;5069183;28;20056;-59
2023/08/29 05:13:56;;;;;;;6.18;2.90;;;;;;;;;;5055134;28;20106;-60
2023/08/29 05:16:23;;;;;;;4.00;2.85;;;;;;;;;;5051722;28;20398;-59
2023/08/29 05:18:49;;;;;;;4.28;2.78;;;;;;;;;;5069958;28;20045;-60
2023/08/29 05:21:16;;;;;;;4.22;2.50;;;;;;;;;;5069128;28;20045;-60
2023/08/29 05:23:43;;;;;;;5.25;2.55;;;;;;;;;;5071421;28;20056;-60
2023/08/29 05:26:10;;;;;;;4.00;2.40;;;;;;;;;;5073728;28;20053;-59
2023/08/29 05:28:38;;;;;;;5.25;3.05;;;;;;;;;;5074126;28;20059;-59
2023/08/29 05:31:05;;;;;;;3.72;2.10;;;;;;;;;;5071341;28;20052;-60
2023/08/29 05:33:31;;;;;;;3.67;2.60;;;;;;;;;;5071925;28;20053;-60
2023/08/29 05:35:58;;;;;;;7.95;3.25;;;;;;;;;;5073836;28;20053;-60
2023/08/29 05:38:27;;;;;;;3.10;2.53;;;;;;;;;;5074123;28;20064;-60
2023/08/29 05:40:54;;;;;;;6.03;3.53;;;;;;;;;;5070881;28;20424;-60
2023/08/29 05:43:21;;;;;;;3.78;2.80;;;;;;;;;;5073943;28;20506;-59
2023/08/29 05:45:49;;;;;;;3.85;2.45;;;;;;;;;;5075216;28;20056;-61
2023/08/29 05:48:15;;;;;;;3.75;2.40;;;;;;;;;;5074166;28;20060;-61
2023/08/29 05:50:42;;;;;;;4.18;3.00;;;;;;;;;;5073298;28;20052;-60
2023/08/29 05:53:09;;;;;;;4.93;2.90;;;;;;;;;;5073757;28;20055;-60
2023/08/29 05:55:36;;;;;;;3.88;2.53;;;;;;;;;;5071049;28;20049;-60
2023/08/29 05:58:02;;;;;;;3.67;2.72;;;;;;;;;;5075084;28;20052;-60
2023/08/29 06:00:30;;;;;;;4.05;2.75;;;;;;;;;;5071825;28;20497;-59
2023/08/29 06:03:00;;;;;;;3.60;2.47;;;;;;;;;;5072740;28;20049;-60
2023/08/29 06:05:27;;;;;;;4.25;2.55;;;;;;;;;;5073094;28;20059;-60
2023/08/29 06:07:54;;;;;;;3.00;2.45;;;;;;;;;;5074820;28;20056;-60
2023/08/29 06:10:20;;;;;;;4.57;3.53;;;;;;;;;;5074488;28;20059;-60
2023/08/29 06:12:47;;;;;;;3.78;2.55;;;;;;;;;;5074866;28;20048;-60
2023/08/29 06:15:14;;;;;;;6.40;3.70;;;;;;;;;;5074571;28;20055;-60
2023/08/29 06:17:41;;;;;;;4.75;2.85;;;;;;;;;;5072206;28;20074;-60
2023/08/29 06:20:11;;;;;;;4.30;2.70;;;;;;;;;;5067842;28;20048;-60
2023/08/29 06:22:37;;;;;;;;;;;;;;;;;;5073482;28;20049;-61
2023/08/29 06:25:05;;;;;;;4.45;2.72;;;;;;;;;;5074520;28;19920;-60
2023/08/29 06:27:33;;;;;;;4.10;2.88;;;;;;;;;;5073523;28;20063;-60
2023/08/29 06:30:00;;;;;;;4.30;2.55;;;;;;;;;;5074598;28;20067;-61
2023/08/29 06:32:26;;;;;;;3.67;2.65;;;;;;;;;;5074745;28;20053;-58
2023/08/29 06:34:53;;;;;;;2.90;1.75;;;;;;;;;;5072168;28;20060;-58
2023/08/29 06:37:21;;;;;;;4.03;2.30;;;;;;;;;;5066574;28;20064;-57
2023/08/29 06:39:48;;;;;;;3.83;2.30;;;;;;;;;;5074390;28;20473;-58
2023/08/29 06:42:15;;;;;;;4.40;2.80;;;;;;;;;;5074290;28;20049;-58
2023/08/29 06:44:42;;;;;;;3.95;2.97;;;;;;;;;;5073977;28;20055;-59
2023/08/29 06:47:09;;;;;;;4.65;3.13;;;;;;;;;;5072890;28;20052;-59
2023/08/29 06:49:36;;;;;;;5.93;3.15;;;;;;;;;;5073278;28;20057;-60
2023/08/29 06:52:03;;;;;;;4.60;3.00;;;;;;;;;;5073978;28;20048;-59
2023/08/29 06:54:31;;;;;;;5.82;3.00;;;;;;;;;;5073638;28;20075;-59
2023/08/29 06:56:58;;;;;;;10.07;4.07;;;;;;;;;;5074085;28;20064;-59
2023/08/29 06:59:24;;;;;;;5.85;3.90;;;;;;;;;;5073863;28;20055;-59
2023/08/29 07:01:51;;;;;;;7.50;4.50;;;;;;;;;;5073699;28;20049;-59
2023/08/29 07:04:18;;;;;;;4.78;3.30;;;;;;;;;;5072336;28;20063;-59
2023/08/29 07:06:45;;;;;;;5.45;3.55;;;;;;;;;;5073298;28;20052;-59
2023/08/29 07:09:12;;;;;;;5.15;3.53;;;;;;;;;;5073603;28;20056;-59
2023/08/29 07:11:40;;;;;;;4.57;3.45;;;;;;;;;;5073908;28;20059;-59
2023/08/29 07:14:06;;;;;;;4.60;2.67;;;;;;;;;;5073908;28;20063;-58
2023/08/29 07:16:33;;;;;;;5.15;3.50;;;;;;;;;;5073628;28;20059;-59
2023/08/29 07:19:00;;;;;;;6.55;3.33;;;;;;;;;;5071772;28;20052;-60
2023/08/29 07:21:28;;;;;;;5.82;3.78;;;;;;;;;;5073354;28;20060;-60
2023/08/29 07:23:55;;;;;;;6.63;3.97;;;;;;;;;;5073425;28;20056;-60
2023/08/29 07:26:22;;;;;;;6.00;4.05;;;;;;;;;;5073491;28;20053;-60
2023/08/29 07:28:50;;;;;;;5.38;3.25;;;;;;;;;;5073479;28;20048;-59
2023/08/29 07:31:18;;;;;;;6.10;3.53;;;;;;;;;;5073271;28;20048;-59
2023/08/29 07:33:44;;;;;;;7.00;3.58;;;;;;;;;;5071329;28;20049;-59
2023/08/29 07:36:11;;;;;;;5.28;3.83;;;;;;;;;;5072505;28;20052;-59
2023/08/29 07:38:38;;;;;;;5.60;3.55;;;;;;;;;;5073041;28;20052;-59
2023/08/29 07:41:04;;;;;;;6.10;3.95;;;;;;;;;;5072493;28;20052;-59
2023/08/29 07:43:31;;;;;;;6.55;3.85;;;;;;;;;;5072158;28;20060;-60
2023/08/29 07:46:00;;;;;;;7.95;4.00;;;;;;;;;;5071961;28;20053;-60
2023/08/29 07:48:26;;;;;;;5.30;3.67;;;;;;;;;;5071591;28;20053;-59
2023/08/29 07:50:53;;;;;;;6.63;4.03;;;;;;;;;;5072728;28;20048;-59
2023/08/29 07:53:20;;;;;;;6.55;3.70;;;;;;;;;;5072416;28;20051;-59
2023/08/29 07:55:47;;;;;;;6.03;4.65;;;;;;;;;;5072358;28;20057;-59
2023/08/29 07:58:13;;;;;;;5.97;3.88;;;;;;;;;;5072460;28;20060;-59
2023/08/29 08:00:40;;;;;;;8.40;4.65;;;;;;;;;;5072613;28;20056;-59
2023/08/29 08:03:08;;;;;;;6.50;5.03;;;;;;;;;;5070268;28;20044;-58
2023/08/29 08:05:35;;;;;;;7.93;4.82;;;;;;;;;;5072210;28;20044;-58
2023/08/29 08:08:02;;;;;;;7.05;4.20;;;;;;;;;;5072223;28;20108;-59
2023/08/29 08:10:29;;;;;;;7.43;4.00;;;;;;;;;;5072459;28;20061;-59
2023/08/29 08:12:56;;;;;;;6.20;3.75;;;;;;;;;;5072449;28;20056;-59
2023/08/29 08:15:22;;;;;;;6.55;4.72;;;;;;;;;;5072365;28;20059;-59
2023/08/29 08:17:49;;;;;;;9.10;6.30;;;;;;;;;;5070722;28;20063;-59
2023/08/29 08:20:17;;;;;;;9.40;5.93;;;;;;;;;;5072272;28;20049;-60
2023/08/29 08:22:44;;;;;;;9.50;6.18;;;;;;;;;;5072105;28;20048;-59
2023/08/29 08:25:11;;;;;;;11.05;6.47;;;;;;;;;;5072258;28;20405;-60
2023/08/29 08:27:40;;;;;;;9.35;5.90;;;;;;;;;;5071931;28;20060;-59
2023/08/29 08:30:07;;;;;;;8.75;5.55;;;;;;;;;;5072338;28;20414;-59
2023/08/29 08:32:34;;;;;;;9.38;6.03;;;;;;;;;;5067480;28;20052;-60
2023/08/29 08:35:01;;;;;;;7.88;5.43;;;;;;;;;;5070325;28;20071;-60
2023/08/29 08:37:29;;;;;;;7.95;5.28;;;;;;;;;;5072422;28;20489;-59
2023/08/29 08:39:56;;;;;;;7.82;4.90;;;;;;;;;;5072341;28;20409;-59
2023/08/29 08:42:23;;;;;;;8.32;5.30;;;;;;;;;;5072388;28;20060;-59
2023/08/29 08:44:50;;;;;;;7.60;4.90;;;;;;;;;;5072153;28;20063;-59
2023/08/29 08:47:17;;;;;;;7.30;4.72;;;;;;;;;;5069587;28;20075;-59
2023/08/29 08:49:44;;;;;;;9.15;6.00;;;;;;;;;;5072274;28;20496;-59
2023/08/29 08:52:11;;;;;;;9.23;5.63;;;;;;;;;;5075762;28;20056;-60
2023/08/29 08:54:39;;;;;;;7.72;5.35;;;;;;;;;;5075989;28;20060;-59
2023/08/29 08:57:06;;;;;;;7.15;4.63;;;;;;;;;;5076496;28;20048;-59
2023/08/29 08:59:33;;;;;;;8.02;4.78;;;;;;;;;;5076041;28;20056;-59
2023/08/29 09:02:00;;;;;;;7.25;4.53;;;;;;;;;;5075251;28;20048;-59
2023/08/29 09:04:27;;;;;;;8.45;4.70;;;;;;;;;;5074989;28;20052;-59
2023/08/29 09:06:54;;;;;;;8.45;4.47;;;;;;;;;;5076352;28;20059;-61
2023/08/29 09:09:23;;;;;;;6.95;4.93;;;;;;;;;;5076241;28;20048;-59
2023/08/29 09:11:54;;;;;;;8.77;4.95;;;;;;;;;;5076236;28;20067;-59
2023/08/29 09:14:21;;;;;;;7.05;4.47;;;;;;;;;;5075556;28;20098;-59
2023/08/29 09:16:48;;;;;;;7.22;4.45;;;;;;;;;;5075952;28;20079;-59
2023/08/29 09:19:17;;;;;;;6.57;4.45;;;;;;;;;;5074123;28;20413;-59
2023/08/29 09:21:44;;;;;;;;;;;;;;;;;;5075625;28;20068;-60
2023/08/29 09:24:11;;;;;;;6.63;4.05;;;;;;;;;;5075497;28;19928;-59
2023/08/29 09:26:39;;;;;;;6.40;4.22;;;;;;;;;;5075732;28;20055;-59
2023/08/29 09:29:17;;;;;;;6.40;3.95;;;;;;;;;;5075652;28;20053;-59
2023/08/29 09:31:44;;;;;;;5.78;3.55;;;;;;;;;;5075708;28;20478;-59
2023/08/29 09:34:22;;;;;;;9.20;4.07;;;;;;;;;;5073619;28;20068;-61
2023/08/29 09:36:49;;;;;;;7.05;4.00;;;;;;;;;;5075831;28;20055;-59
2023/08/29 09:39:15;;;;;;;6.22;4.03;;;;;;;;;;5075690;28;20048;-59
2023/08/29 09:41:42;;;;;;;5.78;3.55;;;;;;;;;;5075415;28;20056;-60
2023/08/29 09:44:11;;;;;;;6.90;3.72;;;;;;;;;;5075619;28;20481;-59
2023/08/29 09:46:38;;;;;;;;;;;;;;;;;;5076162;28;20060;-59
2023/08/29 09:49:06;;;;;;;5.32;4.20;;;;;;;;;;5073573;28;19920;-60
2023/08/29 09:51:33;;;;;;;5.60;3.95;;;;;;;;;;5075249;28;20060;-59
2023/08/29 09:54:01;;;;;;;6.03;3.95;;;;;;;;;;5075115;28;20059;-59
2023/08/29 09:56:29;;;;;;;5.25;3.80;;;;;;;;;;5074425;28;20055;-59
2023/08/29 09:58:57;;;;;;;5.90;4.03;;;;;;;;;;5075194;28;20401;-60
2023/08/29 10:01:25;;;;;;;4.93;3.20;;;;;;;;;;5074965;28;20076;-59
2023/08/29 10:03:51;;;;;;;6.45;4.47;;;;;;;;;;5072085;28;20481;-59
2023/08/29 10:06:20;;;;;;;6.05;3.88;;;;;;;;;;5074969;28;20059;-59
2023/08/29 10:08:47;;;;;;;;;;;;;;;;;;5075255;28;20080;-60
2023/08/29 10:11:14;;;;;;;6.25;4.10;;;;;;;;;;5074953;28;19928;-59
2023/08/29 10:13:42;;;;;;;4.38;3.40;;;;;;;;;;5074689;28;20051;-60
2023/08/29 10:16:09;;;;;;;4.72;3.17;;;;;;;;;;5075020;28;20060;-60
2023/08/29 10:18:37;;;;;;;4.93;3.65;;;;;;;;;;5072452;28;20488;-60
2023/08/29 10:21:05;;;;;;;5.47;3.63;;;;;;;;;;5074163;28;20405;-60
2023/08/29 10:23:33;;;;;;;5.53;3.33;;;;;;;;;;5074703;28;20481;-60
2023/08/29 10:26:01;;;;;;;4.93;3.55;;;;;;;;;;5074608;28;20049;-60
2023/08/29 10:28:29;;;;;;;5.20;3.30;;;;;;;;;;5074555;28;20059;-59
2023/08/29 10:30:58;;;;;;;4.60;3.78;;;;;;;;;;5074592;28;20494;-60
2023/08/29 10:33:25;;;;;;;5.88;3.60;;;;;;;;;;5071151;28;20051;-60
2023/08/29 10:35:53;;;;;;;5.47;3.67;;;;;;;;;;5073826;28;20059;-60
2023/08/29 10:38:19;;;;;;;4.50;3.30;;;;;;;;;;5074228;28;20063;-61
2023/08/29 10:40:48;;;;;;;6.55;3.25;;;;;;;;;;5074265;28;20052;-60
2023/08/29 10:43:18;;;;;;;5.78;3.25;;;;;;;;;;5074183;28;20052;-60
2023/08/29 10:45:48;;;;;;;6.28;3.75;;;;;;;;;;5074136;28;20079;-59
2023/08/29 10:48:18;;;;;;;3.58;2.95;;;;;;;;;;5072245;28;20049;-60
2023/08/29 10:50:46;;;;;;;4.97;3.50;;;;;;;;;;5073760;28;20053;-60
2023/08/29 10:53:17;;;;;;;5.55;3.55;;;;;;;;;;5074069;28;20390;-60
2023/08/29 10:55:57;;;;;;;5.43;3.42;;;;;;;;;;5074208;28;20366;-60
2023/08/29 10:58:35;;;;;;;5.00;3.85;;;;;;;;;;5074119;28;20474;-59
2023/08/29 11:01:03;;;;;;;6.68;4.20;;;;;;;;;;5073880;28;20067;-60
2023/08/29 11:03:38;;;;;;;5.88;4.40;;;;;;;;;;5072091;28;20045;-59
2023/08/29 11:06:05;;;;;;;6.35;3.70;;;;;;;;;;5073872;28;20071;-59
2023/08/29 11:08:32;;;;;;;7.05;4.43;;;;;;;;;;5073537;28;20167;-59
2023/08/29 11:11:13;;;;;;;4.82;3.30;;;;;;;;;;5073762;28;20065;-59
2023/08/29 11:13:55;;;;;;;4.20;3.20;;;;;;;;;;5073243;28;20044;-59
2023/08/29 11:16:23;;;;;;;4.35;3.53;;;;;;;;;;5073388;28;20480;-60
2023/08/29 11:18:59;;;;;;;3.92;2.75;;;;;;;;;;5072554;28;20056;-60
2023/08/29 11:21:25;;;;;;;3.88;2.88;;;;;;;;;;5073104;28;20056;-60
2023/08/29 11:23:54;;;;;;;4.03;2.70;;;;;;;;;;5073483;28;20056;-60
2023/08/29 11:26:20;;;;;;;4.30;2.70;;;;;;;;;;5073679;28;20202;-60
2023/08/29 11:28:47;;;;;;;3.72;2.40;;;;;;;;;;5073424;28;20478;-60
2023/08/29 11:31:18;;;;;;;3.50;3.00;;;;;;;;;;5073446;28;20059;-61
2023/08/29 11:33:47;;;;;;;5.13;3.28;;;;;;;;;;5071165;28;20075;-58
2023/08/29 11:36:14;;;;;;;3.30;2.80;;;;;;;;;;5073166;28;20049;-59
2023/08/29 11:38:41;;;;;;;3.55;2.67;;;;;;;;;;5073369;28;20493;-59
2023/08/29 11:41:07;;;;;;;4.28;2.90;;;;;;;;;;5073028;28;20056;-59
2023/08/29 11:43:34;;;;;;;4.32;2.83;;;;;;;;;;5072941;28;20048;-59
2023/08/29 11:46:03;;;;;;;3.85;2.78;;;;;;;;;;5072832;28;20060;-59
2023/08/29 11:48:30;;;;;;;3.78;2.45;;;;;;;;;;5070711;28;20053;-59
2023/08/29 11:51:00;;;;;;;3.80;2.22;;;;;;;;;;5072979;28;20492;-58
2023/08/29 11:53:32;;;;;;;4.05;2.33;;;;;;;;;;5072857;28;20060;-58
2023/08/29 11:55:59;;;;;;;4.68;2.90;;;;;;;;;;5072963;28;20053;-58
2023/08/29 11:58:27;;;;;;;4.15;2.38;;;;;;;;;;5072552;28;20059;-58
2023/08/29 12:00:54;;;;;;;4.85;2.65;;;;;;;;;;5072532;28;20421;-58
2023/08/29 12:03:21;;;;;;;3.35;2.30;;;;;;;;;;5071270;28;20067;-58
2023/08/29 12:05:48;;;;;;;4.85;2.95;;;;;;;;;;5072244;28;20055;-58
2023/08/29 12:08:16;;;;;;;4.47;2.75;;;;;;;;;;5071812;28;20509;-58
2023/08/29 12:10:53;;;;;;;3.38;2.45;;;;;;;;;;5072343;28;20064;-57
2023/08/29 12:13:21;;;;;;;4.38;2.40;;;;;;;;;;5072661;28;20462;-58
2023/08/29 12:15:48;;;;;;;2.75;2.17;;;;;;;;;;5072499;28;20053;-58
2023/08/29 12:18:21;;;;;;;2.78;1.98;;;;;;;;;;5070411;28;20052;-59
2023/08/29 12:20:48;;;;;;;3.83;2.00;;;;;;;;;;5072729;28;20063;-58
2023/08/29 12:23:26;;;;;;;3.03;2.10;;;;;;;;;;5072219;28;20059;-58
2023/08/29 12:25:55;;;;;;;2.42;1.73;;;;;;;;;;5072183;28;20049;-58
2023/08/29 12:28:23;;;;;;;2.40;1.65;;;;;;;;;;5071748;28;20056;-59
2023/08/29 12:30:49;;;;;;;4.40;2.17;;;;;;;;;;5072331;28;20055;-58
2023/08/29 12:33:16;;;;;;;2.47;1.80;;;;;;;;;;5070009;28;20052;-57
2023/08/29 12:35:43;;;;;;;3.35;2.60;;;;;;;;;;5071858;28;20052;-58
2023/08/29 12:38:11;;;;;;;3.33;2.58;;;;;;;;;;5072403;28;20044;-58
2023/08/29 12:40:39;;;;;;;2.95;2.30;;;;;;;;;;5072310;28;20056;-58
2023/08/29 12:43:07;;;;;;;3.90;2.70;;;;;;;;;;5071772;28;20059;-58
2023/08/29 12:45:34;;;;;;;3.60;2.30;;;;;;;;;;5071573;28;20052;-58
2023/08/29 12:48:00;;;;;;;3.85;1.77;;;;;;;;;;5069297;28;20048;-58
2023/08/29 12:50:27;;;;;;;3.13;1.60;;;;;;;;;;5072114;28;20387;-59
2023/08/29 12:52:54;;;;;;;3.28;2.38;;;;;;;;;;5072148;28;20052;-58
2023/08/29 12:55:21;;;;;;;3.80;2.47;;;;;;;;;;5071766;28;20049;-58
2023/08/29 12:57:50;;;;;;;2.90;1.80;;;;;;;;;;5072059;28;20052;-58
2023/08/29 13:00:18;;;;;;;;;;;;;;;;;;5071875;28;20063;-58
2023/08/29 13:02:44;;;;;;;4.20;2.40;;;;;;;;;;5070777;28;19920;-58
2023/08/29 13:05:11;;;;;;;3.17;1.60;;;;;;;;;;5072061;28;20045;-59
2023/08/29 13:07:38;;;;;;;2.67;1.83;;;;;;;;;;5072057;28;20057;-58
2023/08/29 13:10:05;;;;;;;4.18;1.92;;;;;;;;;;5071922;28;20048;-58
2023/08/29 13:12:32;;;;;;;3.00;1.80;;;;;;;;;;5069961;28;20056;-58
2023/08/29 13:15:00;;;;;;;4.20;2.08;;;;;;;;;;5069622;28;20405;-58
2023/08/29 13:17:27;;;;;;;2.67;1.60;;;;;;;;;;5070877;28;20044;-58
2023/08/29 13:19:55;;;;;;;2.67;1.77;;;;;;;;;;5071896;28;20083;-58
2023/08/29 13:22:21;;;;;;;2.15;1.27;;;;;;;;;;5071767;28;20059;-58
2023/08/29 13:24:48;;;;;;;3.03;1.05;;;;;;;;;;5071428;28;20055;-60
2023/08/29 13:27:15;;;;;;;1.60;0.70;;;;;;;;;;5072002;28;20072;-60
2023/08/29 13:29:42;;;;;;;1.30;0.80;;;;;;;;;;5071466;28;20063;-60
2023/08/29 13:32:10;;;;;;;1.45;1.08;;;;;;;;;;5069228;28;20071;-57
2023/08/29 13:34:36;;;;;;;1.85;1.00;;;;;;;;;;5059928;28;20057;-58
2023/08/29 13:37:04;;;;;;;2.92;1.05;;;;;;;;;;5071108;28;20065;-59
2023/08/29 13:39:30;;;;;;;1.10;0.70;;;;;;;;;;5075273;28;20063;-59
2023/08/29 13:41:57;;;;;;;1.77;0.80;;;;;;;;;;5075254;28;20060;-59
2023/08/29 13:44:24;;;;;;;1.42;0.77;;;;;;;;;;5075237;28;20051;-59
2023/08/29 13:46:51;;;;;;;1.50;0.65;;;;;;;;;;5074353;28;20068;-58
2023/08/29 13:49:19;;;;;;;4.35;1.20;;;;;;;;;;5074952;28;20056;-58
2023/08/29 13:51:45;;;;;;;1.10;0.63;;;;;;;;;;5075080;28;20056;-59
2023/08/29 13:54:12;;;;;;;1.23;0.70;;;;;;;;;;5075107;28;20049;-60
2023/08/29 13:56:39;;;;;;;1.35;0.70;;;;;;;;;;5075078;28;20502;-59
2023/08/29 13:59:06;;;;;;;1.75;0.93;;;;;;;;;;5074947;28;20075;-59
2023/08/29 14:01:33;;;;;;;1.52;0.65;;;;;;;;;;5074357;28;20401;-59
2023/08/29 14:04:00;;;;;;;1.63;0.95;;;;;;;;;;5072884;28;20052;-59
2023/08/29 14:06:28;;;;;;;2.05;0.98;;;;;;;;;;5074945;28;20048;-59
2023/08/29 14:08:55;;;;;;;1.47;1.00;;;;;;;;;;5074897;28;20056;-59
2023/08/29 14:11:21;;;;;;;3.90;1.17;;;;;;;;;;5074770;28;20057;-59
2023/08/29 14:13:48;;;;;;;2.28;0.80;;;;;;;;;;5074654;28;20076;-60
2023/08/29 14:16:15;;;;;;;1.40;0.95;;;;;;;;;;5074200;28;20393;-60
2023/08/29 14:18:43;;;;;;;2.10;0.73;;;;;;;;;;5072970;28;20405;-60
2023/08/29 14:21:10;;;;;;;1.50;1.10;;;;;;;;;;5074704;28;20106;-60
2023/08/29 14:23:38;;;;;;;2.20;0.70;;;;;;;;;;5074844;28;20486;-60
2023/08/29 14:26:08;;;;;;;1.17;0.60;;;;;;;;;;5074694;28;20470;-60
2023/08/29 14:28:35;;;;;;;1.67;1.00;;;;;;;;;;5074718;28;20056;-60
2023/08/29 14:31:03;;;;;;;1.13;0.65;;;;;;;;;;5074584;28;20056;-60
2023/08/29 14:33:29;;;;;;;1.85;0.68;;;;;;;;;;5072418;28;20052;-60
2023/08/29 14:35:56;;;;;;;1.35;0.88;;;;;;;;;;5073197;28;20075;-60
2023/08/29 14:38:23;;;;;;;2.17;0.70;;;;;;;;;;5074136;28;20052;-59
2023/08/29 14:40:51;;;;;;;1.15;0.80;;;;;;;;;;5074060;28;20366;-59
2023/08/29 14:43:18;;;;;;;2.20;0.97;;;;;;;;;;5073099;28;20052;-59
2023/08/29 14:45:45;;;;;;;1.52;0.77;;;;;;;;;;5072256;28;20048;-60
2023/08/29 14:48:12;;;;;;;0.65;0.40;;;;;;;;;;5072816;28;20052;-59